world map with BZO marked

BZO - Airport

This information may not be accurate or current and is not valid for navigation or flight planning. No warranty of fitness for any purpose is made or implied.

flag of Trentino-Alto Adigeflag of Italy

Donate via PayPal

Additional information is available on the NEW Great Circle Mapper

Location
City:  Bolzano, Trentino-Alto Adige, Italy
Near (Alt.):Bozen
Name:Dolomiti
ICAO / IATA:LIPB / BZO

Details
Type:Airport (Aerodrome, Airfield)
Use:Public/Civil
Latitude:46°27'37"N (46.460194)
Longitude:11°19'35"E (11.326383)
Datum:WGS 1984
Elevation:789 ft (240 m)
Runways:2
Longest:4255 × 98 ft (1297 × 30 m)

Time
Timezone:UTC+1 (DST+4)
Local Time:

Weather
METAR:LIPB  041350Z 00000KT CAVOK 09/M07 Q1025 RMK MON LIB
TAF:LIPB  041100Z 0412/0512 VRB05KT 9999 SCT070

Related Locations
Nearby:
Farthest:CHT: 12016 mi / 19338 km
Waitangi [Tuuta], CIT, NZ

Find:

   beyond  
but within

Other Information
Maps:
Sources:

  


 


Great Circle Mapper   Great Circle Mapper
Great Circle Mapper FAQ   Great Circle Mapper FAQ
  Karl's Home Page
KLSē   KLSē Home
   GC on Facebook
Airlines of the World   Airlines of the World
Donate via PayPal


Copyright © 2004-2019, Karl L. Swartz. All rights reserved.
All trademarks mentioned herein belong to their respective owners.

Please see credits for attribution and copyright information.

Karl Swartz <karl@kls2.com>
  Powered by FreeBSD
Valid HTML 4.01!
Labeled with ICRA
hCard Microformat
Geo Microformat